Time;durP1;ratioP1;P1;durP2;ratioP2;P2;SDS_P1;SDS_P2;PMS_P1;PMS_P2;Temp;Humidity;BMP_temperature;BMP_pressure;BME280_temperature;BME280_humidity;BME280_pressure;Samples;Min_cycle;Max_cycle;Signal;HPM_P1;HPM_P2
2024/04/03 00:00:34;;;;;;;3.17;2.10;;;9.90;98.00;;;;;;5012489;28;20489;-65
2024/04/03 00:03:01;;;;;;;3.37;2.00;;;9.90;98.00;;;;;;5012350;28;20550;-65
2024/04/03 00:05:27;;;;;;;7.00;1.83;;;9.80;98.00;;;;;;5012251;28;20970;-65
2024/04/03 00:07:54;;;;;;;4.47;2.00;;;9.80;98.00;;;;;;5012206;28;20468;-65
2024/04/03 00:10:22;;;;;;;5.27;1.90;;;9.80;98.00;;;;;;5011638;28;20456;-65
2024/04/03 00:12:49;;;;;;;3.83;1.90;;;9.90;98.00;;;;;;5012187;28;20468;-65
2024/04/03 00:15:16;;;;;;;2.20;1.63;;;9.90;98.00;;;;;;5012584;28;20825;-65
2024/04/03 00:17:44;;;;;;;2.77;1.73;;;9.80;98.00;;;;;;5010589;28;20463;-65
2024/04/03 00:20:10;;;;;;;3.03;1.80;;;9.80;98.00;;;;;;5027409;28;20515;-65
2024/04/03 00:22:38;;;;;;;5.30;2.10;;;9.50;98.00;;;;;;5012161;28;20464;-65
2024/04/03 00:25:05;;;;;;;5.30;1.90;;;9.40;98.00;;;;;;5012209;28;20458;-65
2024/04/03 00:27:34;;;;;;;2.70;1.97;;;9.20;98.00;;;;;;5012032;28;20494;-65
2024/04/03 00:30:01;;;;;;;2.23;1.80;;;9.30;98.00;;;;;;5012022;28;20460;-65
2024/04/03 00:32:28;;;;;;;2.40;1.70;;;9.10;98.00;;;;;;5011822;28;20476;-66
2024/04/03 00:34:54;;;;;;;6.33;1.90;;;9.20;98.00;;;;;;5011944;28;20517;-65
2024/04/03 00:37:21;;;;;;;6.63;2.30;;;9.10;98.00;;;;;;5012084;28;20513;-65
2024/04/03 00:39:52;;;;;;;4.17;1.77;;;9.00;98.00;;;;;;5012062;28;20479;-65
2024/04/03 00:42:19;;;;;;;3.47;1.80;;;9.00;98.00;;;;;;5012035;28;20839;-65
2024/04/03 00:44:49;;;;;;;4.57;2.10;;;8.90;98.00;;;;;;5012042;28;20452;-65
2024/04/03 00:47:16;;;;;;;3.50;1.80;;;9.10;98.00;;;;;;5012050;28;20823;-65
2024/04/03 00:49:43;;;;;;;3.17;1.90;;;9.10;98.00;;;;;;5012198;28;20454;-65
2024/04/03 00:52:11;;;;;;;2.70;1.80;;;9.10;98.00;;;;;;5027239;28;20857;-65
2024/04/03 00:54:40;;;;;;;3.00;1.97;;;9.10;98.00;;;;;;5011892;28;20510;-65
2024/04/03 00:57:07;;;;;;;3.03;1.80;;;9.00;98.00;;;;;;5011882;28;20934;-65
2024/04/03 00:59:34;;;;;;;4.73;1.83;;;9.00;98.00;;;;;;5011850;28;20491;-65
2024/04/03 01:02:02;;;;;;;6.67;2.10;;;9.10;98.00;;;;;;5011793;28;20468;-65
2024/04/03 01:04:29;;;;;;;3.90;1.93;;;9.20;98.00;;;;;;5011804;28;20455;-65
2024/04/03 01:06:56;;;;;;;4.17;2.10;;;9.20;98.00;;;;;;5027012;28;20835;-65
2024/04/03 01:09:22;;;;;;;2.37;1.50;;;9.30;98.00;;;;;;5011834;28;20451;-65
2024/04/03 01:11:50;;;;;;;5.43;2.07;;;9.30;98.00;;;;;;5011951;28;20460;-65
2024/04/03 01:14:16;;;;;;;2.43;1.83;;;9.40;98.00;;;;;;5011906;28;20571;-65
2024/04/03 01:16:44;;;;;;;3.30;1.87;;;9.20;98.00;;;;;;5026939;28;20546;-65
2024/04/03 01:19:12;;;;;;;4.30;1.97;;;9.40;98.00;;;;;;5012061;28;20452;-65
2024/04/03 01:21:40;;;;;;;8.13;2.03;;;9.30;98.00;;;;;;5011776;28;20507;-65
2024/04/03 01:24:11;;;;;;;3.10;1.90;;;9.40;98.00;;;;;;5015438;28;20902;-65
2024/04/03 01:26:39;;;;;;;3.00;1.83;;;9.20;98.00;;;;;;5015442;28;20468;-65
2024/04/03 01:29:05;;;;;;;6.33;2.00;;;8.90;98.00;;;;;;5015337;28;20949;-65
2024/04/03 01:31:32;;;;;;;5.17;2.10;;;8.70;98.00;;;;;;5015372;28;20456;-65
2024/04/03 01:33:58;;;;;;;3.47;1.97;;;8.40;98.00;;;;;;5015356;28;20463;-65
2024/04/03 01:36:25;;;;;;;5.60;2.27;;;8.40;98.00;;;;;;5015329;28;20471;-65
2024/04/03 01:38:51;;;;;;;4.10;2.37;;;8.30;98.00;;;;;;5015070;28;20451;-65
2024/04/03 01:41:20;;;;;;;2.97;1.70;;;8.20;98.00;;;;;;5015123;28;20481;-65
2024/04/03 01:43:47;;;;;;;5.40;2.60;;;8.10;98.00;;;;;;5012982;28;20458;-65
2024/04/03 01:46:14;;;;;;;4.13;2.00;;;8.10;98.00;;;;;;5015126;28;20458;-65
2024/04/03 01:48:41;;;;;;;2.83;1.83;;;8.20;98.00;;;;;;5030115;28;20563;-65
2024/04/03 01:51:07;;;;;;;2.43;1.67;;;8.10;98.00;;;;;;5014989;28;20933;-65
2024/04/03 01:53:34;;;;;;;3.23;2.20;;;8.20;98.00;;;;;;5014778;28;20463;-65
2024/04/03 01:56:00;;;;;;;2.80;2.00;;;8.30;98.00;;;;;;5014585;28;20464;-65
2024/04/03 01:58:29;;;;;;;3.90;2.17;;;8.20;98.00;;;;;;5014662;28;21133;-65
2024/04/03 02:00:55;;;;;;;3.17;2.00;;;8.20;98.00;;;;;;5014630;28;20900;-65
2024/04/03 02:03:23;;;;;;;3.70;2.00;;;8.40;98.00;;;;;;5014589;28;20466;-65
2024/04/03 02:05:49;;;;;;;3.00;1.93;;;8.40;98.00;;;;;;5014445;28;20463;-65
2024/04/03 02:08:16;;;;;;;2.47;1.90;;;8.20;98.00;;;;;;5014478;28;20497;-65
2024/04/03 02:10:43;;;;;;;4.20;1.90;;;8.30;98.00;;;;;;5014748;28;20517;-65
2024/04/03 02:13:11;;;;;;;2.93;1.90;;;8.20;98.00;;;;;;5014442;28;20467;-65
2024/04/03 02:15:38;;;;;;;2.77;1.90;;;8.20;98.00;;;;;;5014323;28;20445;-65
2024/04/03 02:18:06;;;;;;;3.20;2.10;;;8.20;98.00;;;;;;5014295;28;20464;-65
2024/04/03 02:20:33;;;;;;;8.83;2.00;;;8.10;98.00;;;;;;5014367;28;20940;-65
2024/04/03 02:23:00;;;;;;;4.23;2.20;;;8.00;98.00;;;;;;5014119;28;20462;-65
2024/04/03 02:25:26;;;;;;;5.27;1.93;;;8.00;98.00;;;;;;5014047;28;21067;-65
2024/04/03 02:27:55;;;;;;;5.10;2.20;;;8.10;98.00;;;;;;5013954;28;20481;-65
2024/04/03 02:30:22;;;;;;;3.60;1.90;;;8.10;98.00;;;;;;5012829;28;20460;-65
2024/04/03 02:32:50;;;;;;;4.23;1.97;;;8.10;98.00;;;;;;5013609;28;20588;-65
2024/04/03 02:35:16;;;;;;;7.80;2.20;;;8.10;98.00;;;;;;5013754;28;20520;-65
2024/04/03 02:37:43;;;;;;;4.80;1.90;;;8.10;98.00;;;;;;5014054;28;20462;-65
2024/04/03 02:40:10;;;;;;;3.90;2.07;;;8.10;98.00;;;;;;5013908;28;20476;-65
2024/04/03 02:42:37;;;;;;;3.73;2.10;;;8.10;98.00;;;;;;5013878;28;20879;-65
2024/04/03 02:45:04;;;;;;;3.07;2.00;;;8.20;98.00;;;;;;5012879;28;20455;-65
2024/04/03 02:47:31;;;;;;;2.57;2.00;;;8.30;98.00;;;;;;5013909;28;20536;-65
2024/04/03 02:49:59;;;;;;;2.83;2.10;;;8.30;98.00;;;;;;5013866;28;20456;-65
2024/04/03 02:52:26;;;;;;;3.90;2.40;;;8.30;98.00;;;;;;5013741;28;20470;-65
2024/04/03 02:54:52;;;;;;;3.57;2.10;;;8.50;98.00;;;;;;5013646;28;20975;-65
2024/04/03 02:57:19;;;;;;;5.80;2.30;;;8.50;98.00;;;;;;5013707;28;20478;-65
2024/04/03 02:59:45;;;;;;;5.20;2.30;;;8.60;98.00;;;;;;5013694;28;20448;-65
2024/04/03 03:02:12;;;;;;;2.40;1.93;;;8.60;98.00;;;;;;5013456;28;20479;-65
2024/04/03 03:04:43;;;;;;;2.97;1.93;;;8.40;98.00;;;;;;5012883;28;20469;-65
2024/04/03 03:07:12;;;;;;;3.10;1.90;;;8.30;98.00;;;;;;5028234;28;20457;-65
2024/04/03 03:09:38;;;;;;;2.50;2.00;;;8.30;98.00;;;;;;5012736;28;20450;-65
2024/04/03 03:12:06;;;;;;;4.50;2.30;;;8.30;98.00;;;;;;5012864;28;20485;-65
2024/04/03 03:14:32;;;;;;;3.07;2.10;;;8.30;98.00;;;;;;5028633;28;20936;-65
2024/04/03 03:16:59;;;;;;;2.57;1.90;;;8.20;98.00;;;;;;5013235;28;20983;-65
2024/04/03 03:19:25;;;;;;;3.40;2.20;;;8.20;98.00;;;;;;5013552;28;20996;-65
2024/04/03 03:21:52;;;;;;;4.47;2.30;;;8.20;98.00;;;;;;5013512;28;20989;-65
2024/04/03 03:24:23;;;;;;;5.57;2.60;;;8.30;98.00;;;;;;5028874;28;20449;-65
2024/04/03 03:26:51;;;;;;;3.87;2.50;;;8.40;98.00;;;;;;5013194;28;20537;-65
2024/04/03 03:29:17;;;;;;;4.60;2.50;;;8.50;98.00;;;;;;5012972;28;20459;-65
2024/04/03 03:31:44;;;;;;;4.30;2.50;;;8.80;98.00;;;;;;5012803;28;20458;-65
2024/04/03 03:34:10;;;;;;;5.37;2.27;;;8.80;98.00;;;;;;5012782;28;20950;-65
2024/04/03 03:36:37;;;;;;;3.47;2.30;;;8.70;98.00;;;;;;5012856;28;20497;-65
2024/04/03 03:39:04;;;;;;;4.60;2.40;;;8.60;98.00;;;;;;5012885;28;20467;-65
2024/04/03 03:41:33;;;;;;;4.60;2.20;;;8.70;98.00;;;;;;5012602;28;20494;-65
2024/04/03 03:44:01;;;;;;;3.30;2.40;;;8.70;98.00;;;;;;5012442;28;20453;-65
2024/04/03 03:46:27;;;;;;;6.30;2.30;;;8.60;98.00;;;;;;5012709;28;20458;-65
2024/04/03 03:54:23;;;;;;;3.73;2.47;;;8.60;98.00;;;;;;5012603;28;20447;-65
2024/04/03 03:56:51;;;;;;;5.43;2.23;;;8.70;98.00;;;;;;5012486;28;20451;-65
2024/04/03 03:59:18;;;;;;;3.50;2.20;;;8.70;98.00;;;;;;5012751;28;20467;-65
2024/04/03 04:01:47;;;;;;;2.73;1.93;;;8.70;98.00;;;;;;5012527;28;20491;-65
2024/04/03 04:04:15;;;;;;;4.63;2.30;;;8.70;98.00;;;;;;5012459;28;20520;-65
2024/04/03 04:06:41;;;;;;;3.33;2.20;;;8.70;98.00;;;;;;5007397;28;20487;-65
2024/04/03 04:09:10;;;;;;;3.17;2.07;;;8.70;98.00;;;;;;4992836;28;20810;-65
2024/04/03 04:11:40;;;;;;;4.67;2.33;;;8.70;98.00;;;;;;4993220;28;20459;-65
2024/04/03 04:14:08;;;;;;;3.83;2.57;;;8.60;98.00;;;;;;4992776;28;20511;-65
2024/04/03 04:16:34;;;;;;;3.13;2.17;;;8.40;98.00;;;;;;4992608;28;20459;-65
2024/04/03 04:19:01;;;;;;;4.53;2.47;;;8.40;98.00;;;;;;4992580;28;20467;-65
2024/04/03 04:21:28;;;;;;;3.20;2.00;;;8.40;98.00;;;;;;4992573;28;20488;-65
2024/04/03 04:23:57;;;;;;;3.47;2.23;;;8.40;98.00;;;;;;4992467;28;20464;-65
2024/04/03 04:26:23;;;;;;;4.90;2.30;;;8.40;98.00;;;;;;4992748;28;20445;-65
2024/04/03 04:28:53;;;;;;;6.30;2.17;;;8.40;98.00;;;;;;4992646;28;20452;-65
2024/04/03 04:31:20;;;;;;;4.13;2.30;;;8.40;98.00;;;;;;4992648;28;20464;-65
2024/04/03 04:33:47;;;;;;;5.20;2.57;;;8.40;98.00;;;;;;4992360;28;20483;-65
2024/04/03 04:36:13;;;;;;;6.53;2.30;;;8.30;98.00;;;;;;4992564;28;20456;-65
2024/04/03 04:38:41;;;;;;;4.10;2.20;;;8.30;98.00;;;;;;4992444;28;20466;-65
2024/04/03 04:41:07;;;;;;;4.13;2.10;;;8.20;98.00;;;;;;4992456;28;20491;-65
2024/04/03 04:43:35;;;;;;;4.10;2.00;;;8.30;98.00;;;;;;4992209;28;20459;-65
2024/04/03 04:46:03;;;;;;;3.07;2.37;;;8.30;98.00;;;;;;4991345;28;20451;-65
2024/04/03 04:48:32;;;;;;;4.77;2.40;;;8.40;98.00;;;;;;4991934;28;20464;-65
2024/04/03 04:50:59;;;;;;;3.40;2.27;;;8.40;98.00;;;;;;4992249;28;20458;-65
2024/04/03 04:53:27;;;;;;;3.90;2.53;;;8.40;98.00;;;;;;4992171;28;20525;-65
2024/04/03 04:55:54;;;;;;;3.80;2.53;;;8.60;98.00;;;;;;4992241;28;20491;-65
2024/04/03 04:58:22;;;;;;;4.00;2.30;;;8.30;98.00;;;;;;4995501;28;20471;-65
2024/04/03 05:00:50;;;;;;;3.47;2.30;;;8.20;98.00;;;;;;4995972;28;20486;-65
2024/04/03 05:03:21;;;;;;;4.43;2.33;;;8.10;98.00;;;;;;4996227;28;20466;-65
2024/04/03 05:05:50;;;;;;;2.80;2.20;;;8.10;98.00;;;;;;4996106;28;20464;-65
2024/04/03 05:08:19;;;;;;;5.33;2.70;;;8.00;98.00;;;;;;4995999;28;20470;-65
2024/04/03 05:10:49;;;;;;;5.90;2.57;;;8.00;98.00;;;;;;4995980;28;20456;-65
2024/04/03 05:13:18;;;;;;;4.03;2.47;;;8.00;98.00;;;;;;4996013;28;20462;-65
2024/04/03 05:15:45;;;;;;;6.90;2.40;;;8.10;98.00;;;;;;4995965;28;20996;-65
2024/04/03 05:18:12;;;;;;;4.77;2.37;;;8.30;98.00;;;;;;4994793;28;20460;-65
2024/04/03 05:20:39;;;;;;;3.07;2.10;;;8.30;98.00;;;;;;4995618;28;20465;-65
2024/04/03 05:23:09;;;;;;;4.80;2.50;;;8.40;98.00;;;;;;4995751;28;20472;-65
2024/04/03 05:25:36;;;;;;;3.70;2.23;;;8.60;98.00;;;;;;4995928;28;20450;-65
2024/04/03 05:28:04;;;;;;;3.73;2.27;;;8.60;98.00;;;;;;4994630;28;20471;-65
2024/04/03 05:30:35;;;;;;;6.27;2.03;;;8.70;98.00;;;;;;4995764;28;20860;-65
2024/04/03 05:33:02;;;;;;;5.93;2.43;;;8.60;98.00;;;;;;4995451;28;20483;-65
2024/04/03 05:35:28;;;;;;;3.63;2.40;;;8.40;98.00;;;;;;4995739;28;20537;-65
2024/04/03 05:37:55;;;;;;;6.27;2.53;;;8.40;98.00;;;;;;4995608;28;20460;-65
2024/04/03 05:40:23;;;;;;;7.07;3.00;;;8.40;98.00;;;;;;4995381;28;20805;-65
2024/04/03 05:42:57;;;;;;;5.07;2.27;;;8.50;98.00;;;;;;4995177;28;20490;-65
2024/04/03 05:45:24;;;;;;;4.53;2.80;;;8.50;98.00;;;;;;4995312;28;20960;-65
2024/04/03 05:47:55;;;;;;;3.70;2.50;;;8.50;98.00;;;;;;4995457;28;20464;-65
2024/04/03 05:50:21;;;;;;;5.43;2.53;;;8.50;98.00;;;;;;4994861;28;20920;-65
2024/04/03 05:52:49;;;;;;;4.50;2.60;;;8.60;98.00;;;;;;4995183;28;21220;-65
2024/04/03 05:55:16;;;;;;;4.23;2.47;;;8.60;98.00;;;;;;4995363;28;20497;-64
2024/04/03 05:57:45;;;;;;;7.60;2.60;;;8.80;98.00;;;;;;4995237;28;20471;-65
2024/04/03 06:00:13;;;;;;;5.80;2.80;;;8.80;98.00;;;;;;4995350;28;20456;-65
2024/04/03 06:02:40;;;;;;;5.00;2.43;;;8.90;98.00;;;;;;4995161;28;20494;-65
2024/04/03 06:05:06;;;;;;;4.07;2.53;;;8.90;98.00;;;;;;4995096;28;20452;-65
2024/04/03 06:07:34;;;;;;;4.20;2.60;;;9.00;98.00;;;;;;4995133;28;20471;-65
2024/04/03 06:10:01;;;;;;;4.17;2.40;;;9.00;98.00;;;;;;4994158;28;20549;-65
2024/04/03 06:12:28;;;;;;;5.17;2.50;;;9.00;98.00;;;;;;4995097;28;20465;-65
2024/04/03 06:14:55;;;;;;;4.97;2.40;;;9.00;98.00;;;;;;4995041;28;20467;-65
2024/04/03 06:17:22;;;;;;;5.63;2.73;;;8.90;98.00;;;;;;4994955;28;20474;-69
2024/04/03 06:19:48;;;;;;;5.27;2.70;;;8.90;98.00;;;;;;4994982;28;20478;-70
2024/04/03 06:22:16;;;;;;;4.67;2.77;;;9.00;98.00;;;;;;4995064;28;20490;-70
2024/04/03 06:24:42;;;;;;;3.60;2.37;;;9.00;98.00;;;;;;4994977;28;20463;-69
2024/04/03 06:27:12;;;;;;;4.27;2.60;;;9.20;98.00;;;;;;4994828;28;20487;-69
2024/04/03 06:29:38;;;;;;;4.30;2.73;;;9.10;98.00;;;;;;4994557;28;20456;-70
2024/04/03 06:32:09;;;;;;;5.00;2.80;;;9.20;98.00;;;;;;4993593;28;20475;-70
2024/04/03 06:34:35;;;;;;;5.07;2.50;;;9.40;98.00;;;;;;4994406;28;20495;-69
2024/04/03 06:37:02;;;;;;;4.27;2.50;;;9.40;98.00;;;;;;4994046;28;20973;-69
2024/04/03 06:39:28;;;;;;;4.63;2.83;;;9.50;98.00;;;;;;4994545;28;20458;-69
2024/04/03 06:41:55;;;;;;;6.20;2.93;;;9.30;98.00;;;;;;4994475;28;20484;-69
2024/04/03 06:44:21;;;;;;;3.87;2.50;;;9.30;98.00;;;;;;4994284;28;20455;-69
2024/04/03 06:46:48;;;;;;;4.87;2.67;;;9.20;98.00;;;;;;4994080;28;20912;-69
2024/04/03 06:49:15;;;;;;;5.27;2.70;;;9.20;98.00;;;;;;4994158;28;20517;-69
2024/04/03 06:51:44;;;;;;;9.80;2.50;;;9.20;98.00;;;;;;4993984;28;20538;-69
2024/04/03 06:54:10;;;;;;;5.97;2.60;;;9.30;98.00;;;;;;4994119;28;20520;-69
2024/04/03 06:56:37;;;;;;;5.13;2.23;;;9.30;98.00;;;;;;4994044;28;20547;-69
2024/04/03 06:59:03;;;;;;;5.13;2.40;;;9.40;98.00;;;;;;4992599;28;20468;-69
2024/04/03 07:01:30;;;;;;;3.80;2.37;;;9.40;98.00;;;;;;4993798;28;20481;-69
2024/04/03 07:03:56;;;;;;;3.90;2.17;;;9.50;98.00;;;;;;4993694;28;20463;-70
2024/04/03 07:06:24;;;;;;;3.30;2.27;;;9.50;98.00;;;;;;4993831;28;20971;-69
2024/04/03 07:08:50;;;;;;;3.80;2.50;;;9.60;98.00;;;;;;4993781;28;20786;-69
2024/04/03 07:11:19;;;;;;;7.17;2.40;;;9.70;98.00;;;;;;4993911;28;20463;-69
2024/04/03 07:13:45;;;;;;;3.73;2.47;;;9.80;98.00;;;;;;4993811;28;20456;-69
2024/04/03 07:16:12;;;;;;;4.23;2.50;;;9.90;98.00;;;;;;4993780;28;20474;-69
2024/04/03 07:18:39;;;;;;;3.57;2.60;;;10.10;98.00;;;;;;4992897;28;20460;-69
2024/04/03 07:21:08;;;;;;;5.47;2.27;;;10.20;98.00;;;;;;4993184;28;20476;-69
2024/04/03 07:23:36;;;;;;;3.13;2.17;;;10.20;98.00;;;;;;5008377;28;20457;-69
2024/04/03 07:26:04;;;;;;;3.50;2.10;;;10.30;98.00;;;;;;5013041;28;20486;-70
2024/04/03 07:28:30;;;;;;;5.90;1.90;;;10.40;98.00;;;;;;5012023;28;20467;-69
2024/04/03 07:30:57;;;;;;;5.13;2.00;;;10.50;98.00;;;;;;5013119;28;20463;-69
2024/04/03 07:33:23;;;;;;;3.27;2.10;;;10.60;98.00;;;;;;5012945;28;20563;-69
2024/04/03 07:35:51;;;;;;;3.60;2.30;;;10.70;98.00;;;;;;5013004;28;20546;-69
2024/04/03 07:38:19;;;;;;;3.30;2.17;;;10.90;98.00;;;;;;5013145;28;20533;-69
2024/04/03 07:40:50;;;;;;;4.73;2.60;;;11.00;98.00;;;;;;5013155;28;20468;-70
2024/04/03 07:43:16;;;;;;;3.80;2.50;;;11.10;98.00;;;;;;5012750;28;21148;-69
2024/04/03 07:45:43;;;;;;;5.27;2.37;;;11.00;98.00;;;;;;5013078;28;20464;-69
2024/04/03 07:48:10;;;;;;;4.60;2.30;;;11.20;98.00;;;;;;5012837;28;20507;-69
2024/04/03 07:50:40;;;;;;;2.70;2.00;;;11.10;98.00;;;;;;5011646;28;20497;-70
2024/04/03 07:53:06;;;;;;;9.47;2.63;;;11.10;98.00;;;;;;5012973;28;20853;-70
2024/04/03 07:55:35;;;;;;;3.00;2.10;;;11.10;98.00;;;;;;5012899;28;20810;-69
2024/04/03 07:58:03;;;;;;;4.20;2.27;;;11.00;98.00;;;;;;5012648;28;20551;-70
2024/04/03 08:00:30;;;;;;;3.47;2.20;;;11.10;98.00;;;;;;5012616;28;20458;-70
2024/04/03 08:03:02;;;;;;;3.87;2.20;;;11.30;98.00;;;;;;5012780;28;20531;-67
2024/04/03 08:05:29;;;;;;;3.47;2.20;;;11.30;98.00;;;;;;5012347;28;20491;-66
2024/04/03 08:07:56;;;;;;;5.43;2.20;;;11.30;98.00;;;;;;5011485;28;20457;-67
2024/04/03 08:10:23;;;;;;;2.93;1.90;;;11.40;98.00;;;;;;4995248;28;20460;-64
2024/04/03 08:12:49;;;;;;;2.50;1.90;;;11.60;98.00;;;;;;5012659;28;20459;-63
2024/04/03 08:15:18;;;;;;;3.90;2.13;;;11.90;98.00;;;;;;5012653;28;20478;-63
2024/04/03 08:17:44;;;;;;;4.47;2.07;;;12.20;98.00;;;;;;5012301;28;20466;-64
2024/04/03 08:20:13;;;;;;;5.43;2.60;;;12.40;98.00;;;;;;4994623;28;20470;-64
2024/04/03 08:22:40;;;;;;;4.30;2.27;;;12.70;98.00;;;;;;4991876;28;20494;-64
2024/04/03 08:25:08;;;;;;;8.80;2.17;;;12.80;98.00;;;;;;4992456;28;20897;-62
2024/04/03 08:27:34;;;;;;;3.97;2.03;;;13.00;98.00;;;;;;4996696;28;20458;-62
2024/04/03 08:30:02;;;;;;;6.60;2.17;;;13.10;98.00;;;;;;5012150;28;20969;-62
2024/04/03 08:32:29;;;;;;;2.97;2.27;;;13.40;98.00;;;;;;5011367;28;20460;-62
2024/04/03 08:34:56;;;;;;;3.53;2.27;;;13.40;98.00;;;;;;5011944;28;20479;-61
2024/04/03 08:37:24;;;;;;;3.50;1.97;;;13.30;98.00;;;;;;5011899;28;20465;-62
2024/04/03 08:39:52;;;;;;;4.40;2.13;;;13.30;98.00;;;;;;5012119;28;20471;-62
2024/04/03 08:42:18;;;;;;;3.10;2.10;;;13.30;98.00;;;;;;5012050;28;20487;-62
2024/04/03 08:44:46;;;;;;;6.37;2.43;;;13.40;98.00;;;;;;5011883;28;20464;-62
2024/04/03 08:47:13;;;;;;;3.00;2.00;;;13.70;98.00;;;;;;5011850;28;20462;-61
2024/04/03 08:49:42;;;;;;;3.50;1.90;;;13.80;98.00;;;;;;5012081;28;20459;-64
2024/04/03 08:52:10;;;;;;;3.30;2.20;;;14.10;98.00;;;;;;5011977;28;20478;-64
2024/04/03 08:54:40;;;;;;;5.77;2.30;;;14.30;98.00;;;;;;5011794;28;20506;-64
2024/04/03 08:57:07;;;;;;;5.43;2.57;;;14.40;98.00;;;;;;5012066;28;20471;-64
2024/04/03 08:59:38;;;;;;;4.07;2.47;;;14.50;98.00;;;;;;5011947;28;20464;-65
2024/04/03 09:02:04;;;;;;;3.73;2.33;;;14.50;98.00;;;;;;5011972;28;20593;-65
2024/04/03 09:04:33;;;;;;;3.90;1.93;;;14.50;98.00;;;;;;5011809;28;20467;-60
2024/04/03 09:07:03;;;;;;;5.10;2.30;;;14.50;98.00;;;;;;5011795;28;20494;-61
2024/04/03 09:09:32;;;;;;;3.50;2.10;;;14.60;98.00;;;;;;5011774;28;20463;-61
2024/04/03 09:12:03;;;;;;;2.13;1.73;;;15.00;98.00;;;;;;5011821;28;20483;-65
2024/04/03 09:14:30;;;;;;;2.40;2.07;;;15.20;98.00;;;;;;5011764;28;20463;-65
2024/04/03 09:17:00;;;;;;;4.10;2.10;;;15.20;98.00;;;;;;5011836;28;20455;-66
2024/04/03 09:19:29;;;;;;;3.67;2.37;;;15.20;98.00;;;;;;5011786;28;20602;-64
2024/04/03 09:21:57;;;;;;;3.20;2.00;;;15.10;98.00;;;;;;5011800;28;20495;-65
2024/04/03 09:24:26;;;;;;;4.83;2.23;;;15.20;98.00;;;;;;5012021;28;20491;-61
2024/04/03 09:26:56;;;;;;;3.33;1.90;;;15.20;98.00;;;;;;5011902;28;20532;-62
2024/04/03 09:29:24;;;;;;;3.43;2.40;;;15.30;98.00;;;;;;5011466;28;20518;-64
2024/04/03 09:31:50;;;;;;;3.40;2.17;;;15.50;98.00;;;;;;5011962;28;20459;-64
2024/04/03 09:34:20;;;;;;;3.17;1.90;;;15.40;98.00;;;;;;5011142;28;20518;-65
2024/04/03 09:36:46;;;;;;;2.80;1.80;;;15.50;98.00;;;;;;5010855;28;20498;-65
2024/04/03 09:39:13;;;;;;;3.07;1.90;;;15.60;98.00;;;;;;5010806;28;20826;-66
2024/04/03 09:41:50;;;;;;;1.90;1.50;;;15.60;98.00;;;;;;5005722;28;20490;-66
2024/04/03 09:44:20;;;;;;;1.87;1.60;;;15.60;98.00;;;;;;4997244;28;20985;-66
2024/04/03 09:46:51;;;;;;;2.53;1.53;;;15.50;98.00;;;;;;4994714;28;20452;-67
2024/04/03 09:49:23;;;;;;;1.60;1.50;;;15.50;98.00;;;;;;4994509;28;20515;-67
2024/04/03 09:51:50;;;;;;;2.97;1.50;;;15.50;98.00;;;;;;4995213;28;20532;-68
2024/04/03 09:54:19;;;;;;;4.30;1.90;;;15.70;98.00;;;;;;4995082;28;20525;-68
2024/04/03 09:56:47;;;;;;;1.70;1.53;;;15.70;98.00;;;;;;5001683;28;20447;-68
2024/04/03 09:59:14;;;;;;;1.70;1.47;;;16.00;98.00;;;;;;5014864;28;20459;-68
2024/04/03 10:01:45;;;;;;;3.60;1.80;;;16.10;98.00;;;;;;5014900;28;21217;-67
2024/04/03 10:04:14;;;;;;;2.60;1.60;;;16.20;98.00;;;;;;5014984;28;20463;-68
2024/04/03 10:06:42;;;;;;;2.60;1.57;;;16.30;98.00;;;;;;5013728;28;20988;-68
2024/04/03 10:09:16;;;;;;;2.00;1.60;;;16.40;98.00;;;;;;5014415;28;20455;-67
2024/04/03 10:11:54;;;;;;;4.50;1.70;;;16.40;98.00;;;;;;5014370;28;20482;-67
2024/04/03 10:14:30;;;;;;;4.40;1.40;;;16.40;98.00;;;;;;5014416;28;20463;-67
2024/04/03 10:16:58;;;;;;;1.80;1.53;;;16.40;98.00;;;;;;5014132;28;20467;-66
2024/04/03 10:19:30;;;;;;;2.97;1.53;;;16.40;98.00;;;;;;5012699;28;20467;-66
2024/04/03 10:22:00;;;;;;;2.33;1.53;;;16.60;98.00;;;;;;5014621;28;20483;-66
2024/04/03 10:24:30;;;;;;;3.67;1.50;;;16.80;98.00;;;;;;5014149;28;20456;-66
2024/04/03 10:26:59;;;;;;;2.10;1.63;;;16.90;98.00;;;;;;5014290;28;20563;-66
2024/04/03 10:29:25;;;;;;;2.20;1.57;;;17.00;98.00;;;;;;5014013;28;20971;-66
2024/04/03 10:31:52;;;;;;;1.90;1.70;;;17.00;98.00;;;;;;5013710;28;20515;-66
2024/04/03 10:34:19;;;;;;;2.70;1.57;;;17.10;98.00;;;;;;5013257;28;20517;-66
2024/04/03 10:36:47;;;;;;;2.60;1.60;;;17.10;98.00;;;;;;5013371;28;20464;-66
2024/04/03 10:39:14;;;;;;;2.80;1.70;;;17.30;98.00;;;;;;5013829;28;20452;-66
2024/04/03 10:41:42;;;;;;;1.77;1.40;;;17.50;98.00;;;;;;5013756;28;20866;-66
2024/04/03 10:44:12;;;;;;;2.03;1.63;;;17.60;96.80;;;;;;5013807;28;20451;-66
2024/04/03 10:46:39;;;;;;;2.80;1.60;;;17.60;96.90;;;;;;5013606;28;20483;-66
2024/04/03 10:49:05;;;;;;;3.27;1.60;;;17.70;95.10;;;;;;5013394;28;20458;-66
2024/04/03 10:51:32;;;;;;;4.43;1.80;;;17.70;95.90;;;;;;5013676;28;20463;-65
2024/04/03 10:53:59;;;;;;;1.60;1.40;;;17.40;97.30;;;;;;5013138;28;20460;-66
2024/04/03 10:56:27;;;;;;;2.20;1.50;;;17.10;96.60;;;;;;5013426;28;20558;-66
2024/04/03 10:58:54;;;;;;;2.43;1.83;;;16.90;97.40;;;;;;5013318;28;20455;-66
2024/04/03 11:01:22;;;;;;;2.23;1.70;;;16.80;97.20;;;;;;5012130;28;20466;-66
2024/04/03 11:03:51;;;;;;;2.00;1.60;;;16.50;97.60;;;;;;5013266;28;20483;-66
2024/04/03 11:06:19;;;;;;;2.33;1.80;;;16.30;98.00;;;;;;5013490;28;20662;-66
2024/04/03 11:08:46;;;;;;;1.90;1.50;;;16.10;98.00;;;;;;5013194;28;20518;-65
2024/04/03 11:11:14;;;;;;;3.17;1.60;;;15.90;98.00;;;;;;5013210;28;20526;-66
2024/04/03 11:13:46;;;;;;;2.03;1.50;;;15.70;98.00;;;;;;5013125;28;20459;-66
2024/04/03 11:16:13;;;;;;;3.33;1.80;;;15.40;98.00;;;;;;5013310;28;20462;-64
2024/04/03 11:18:43;;;;;;;2.30;1.70;;;15.40;98.00;;;;;;5013038;28;20451;-64
2024/04/03 11:21:10;;;;;;;2.13;1.60;;;15.20;98.00;;;;;;5013240;28;20460;-65
2024/04/03 11:23:37;;;;;;;3.20;1.70;;;15.10;98.00;;;;;;5011481;28;20908;-64
2024/04/03 11:26:05;;;;;;;3.60;1.40;;;14.90;98.00;;;;;;5013233;28;20467;-65
2024/04/03 11:28:32;;;;;;;1.40;1.40;;;14.70;98.00;;;;;;5012131;28;20467;-65
2024/04/03 11:31:00;;;;;;;2.20;1.70;;;14.70;98.00;;;;;;5013101;28;20977;-64
2024/04/03 11:33:27;;;;;;;1.90;1.77;;;14.50;98.00;;;;;;4995672;28;20475;-65
2024/04/03 11:35:56;;;;;;;2.40;1.70;;;14.50;98.00;;;;;;5013076;28;20509;-64
2024/04/03 11:38:22;;;;;;;7.33;1.50;;;14.50;98.00;;;;;;5012991;28;20452;-68
2024/04/03 11:40:50;;;;;;;1.60;1.40;;;14.40;98.00;;;;;;5012854;28;20459;-68
2024/04/03 11:43:16;;;;;;;1.53;1.40;;;14.30;98.00;;;;;;5012723;28;20490;-69
2024/04/03 11:45:43;;;;;;;1.97;1.40;;;14.30;98.00;;;;;;5013137;28;20850;-69
2024/04/03 11:48:09;;;;;;;2.20;1.40;;;14.10;98.00;;;;;;5013128;28;20455;-69
2024/04/03 11:50:36;;;;;;;1.60;1.30;;;14.10;98.00;;;;;;5011559;28;20455;-69
2024/04/03 11:53:05;;;;;;;2.07;1.40;;;14.00;98.00;;;;;;5012514;28;20937;-69
2024/04/03 11:55:32;;;;;;;2.07;1.70;;;14.00;98.00;;;;;;5012628;28;20530;-69
2024/04/03 11:57:58;;;;;;;1.50;1.33;;;14.10;98.00;;;;;;5010188;28;20467;-69
2024/04/03 12:00:25;;;;;;;1.70;1.30;;;14.20;98.00;;;;;;5011295;28;20463;-69
2024/04/03 12:02:51;;;;;;;1.83;1.30;;;14.20;98.00;;;;;;5011835;28;20510;-69
2024/04/03 12:05:19;;;;;;;1.67;1.40;;;14.20;98.00;;;;;;5010213;28;20468;-69
2024/04/03 12:07:45;;;;;;;1.73;1.27;;;14.30;98.00;;;;;;5010682;28;20456;-69
2024/04/03 12:10:14;;;;;;;2.17;1.40;;;14.30;98.00;;;;;;5012321;28;20869;-69
2024/04/03 12:12:40;;;;;;;2.17;1.47;;;14.30;98.00;;;;;;5012140;28;20455;-69
2024/04/03 12:15:09;;;;;;;1.60;1.43;;;14.20;98.00;;;;;;5012318;28;20463;-69
2024/04/03 12:17:35;;;;;;;3.40;1.50;;;14.30;98.00;;;;;;5012065;28;20452;-69
2024/04/03 12:20:30;;;;;;;3.00;1.40;;;14.30;98.00;;;;;;5011988;28;20479;-68
2024/04/03 12:22:56;;;;;;;1.40;1.30;;;14.40;98.00;;;;;;5012060;28;20909;-69
2024/04/03 12:25:25;;;;;;;2.60;1.30;;;14.10;98.00;;;;;;5012224;28;20487;-68
2024/04/03 12:27:52;;;;;;;5.30;1.60;;;14.00;98.00;;;;;;5003929;28;20456;-69
2024/04/03 12:30:21;;;;;;;1.60;1.30;;;14.00;98.00;;;;;;4975111;28;20464;-69
2024/04/03 12:32:47;;;;;;;1.73;1.57;;;13.80;98.00;;;;;;4992321;28;20459;-68
2024/04/03 12:35:16;;;;;;;1.97;1.40;;;13.80;98.00;;;;;;4991343;28;20475;-69
2024/04/03 12:37:42;;;;;;;1.50;1.33;;;13.80;98.00;;;;;;4992584;28;20531;-68
2024/04/03 12:40:11;;;;;;;1.50;1.30;;;13.70;98.00;;;;;;4992399;28;20478;-69
2024/04/03 12:42:38;;;;;;;1.67;1.40;;;13.70;98.00;;;;;;4991845;28;20523;-69
2024/04/03 12:47:33;;;;;;;1.93;1.30;;;13.60;98.00;;;;;;5009351;28;20486;-65
2024/04/03 12:49:59;;;;;;;1.60;1.37;;;13.60;98.00;;;;;;5011275;28;20451;-64
2024/04/03 12:52:26;;;;;;;1.57;1.40;;;13.40;98.00;;;;;;5011368;28;20509;-64
2024/04/03 12:54:54;;;;;;;1.30;1.20;;;13.50;98.00;;;;;;5026937;28;20458;-64
2024/04/03 12:57:21;;;;;;;1.40;1.20;;;13.50;98.00;;;;;;5026381;28;20487;-64
2024/04/03 12:59:49;;;;;;;2.37;1.50;;;13.40;98.00;;;;;;5011880;28;20929;-64
2024/04/03 13:02:16;;;;;;;1.43;1.37;;;13.50;98.00;;;;;;5012505;28;21026;-64